Aérodrome :
LOGIN :

S'inscrire | Disclaimer

   EN    FR    IT 

 










Légende :    VFR   VFR Marginal   IFR   IFR Intensif   IFR Très Intensif
Visi : 
Plafond : 
>= 8 km
>= 3000ft
5 à 8 km
1000 à 3000 ft
1500m à 5 km
500 à 1000 ft
800 à 1500m
200 à 500 ft
< 800m
< 200 ft
Symboles :   Orages  Brouillard  Fortes neiges  Fortes précipitations  Vent > 20 kt
SIGMETs :   Divers  Orages  Givrage  Turbulence  Onde Orograph.  Cendres Volcan.







- Altitude de l'aérodrome : 1947 ft
- Code IATA : OBF


EDMO - Oberpfaffenhofen

DERNIER METAR :
  • 181250Z 32005KT 240V030 9999 FEW033 25/13 Q1019

METARs EXPIRÉS :
  • 181220Z VRB03KT CAVOK 25/13 Q1019
  • 181150Z 30004KT 230V340 CAVOK 25/13 Q1019
  • 181120Z 27006KT 230V330 CAVOK 24/14 Q1019
  • 181050Z VRB03KT CAVOK 24/15 Q1019
  • 181020Z 24004KT CAVOK 23/15 Q1020

TAF TAF EDMO
Valide du 18 à 12h jusqu'au 18 à 21h UTC


181100Z 1812/1821 24004KT CAVOK
PROB30
TEMPO 1819/1821 SHRA SCT060CB
Pas de NOTAMs connus pour ce terrain.



MET'MAP, la Météo Aéronautique d'un coup d'oeil ! - Copyright ORBIFLY Décembre 2007 - Disclaimer

ORBIFLY MET'MAP TEAM :

Programmation & Développement : Alexandra Zaïnal
Conception & Développement : Baudouin d'Aumeries
Co-Programmation & Développement : Marc-Olivier Méhu
Soutien technique & logistique : Manuel Goepfert

Contact : metmap@orbifly.com




SOURCES & CREDITS :

   NOAA